KCAR/CAR METAR and TAF weather

Enter ICAO airport designator
Station Type Date Time Source
KCAR METAR 2020/09/21 06:54 UTC NOAA

KCAR 210654Z AUTO 00000KT 10SM CLR M01/M05 A3059 RMK AO2 SLP366 T10111050


Station Type Date Time Source
KCAR Decoded METAR 2020/09/21 06:54 UTC NOAA

CARIBOU MUNICIPAL AIRPORT, ME, United States (KCAR) 46-52N 68-01W 191M
Sep 21, 2020 - 02:54 AM EDT / 2020.09.21 0654 UTC
Wind: Calm:0
Visibility: 10 mile(s):0
Sky conditions: clear
Temperature: 30.0 F (-1.1 C)
Dew Point: 23.0 F (-5.0 C)
Relative Humidity: 74%
Pressure (altimeter): 30.59 in. Hg (1035 hPa)
ob: KCAR 210654Z AUTO 00000KT 10SM CLR M01/M05 A3059 RMK AO2 SLP366 T10111050
cycle: 7

Station Type Date Time Source
KCAR TAF 2020/09/21 06:36 UTC NOAA

TAF KCAR 210535Z 2106/2206 00000KT P6SM SKC
FM211500 24005KT P6SM SKC

Example: see airport list